createdAt,value
2018-02-19T00:00:12.448Z,56.50
2018-02-19T00:02:15.718Z,56.40
2018-02-19T00:04:18.959Z,56.40
2018-02-19T00:06:32.499Z,56.50
2018-02-19T00:08:35.743Z,56.60
2018-02-19T00:10:38.994Z,56.50
2018-02-19T00:12:42.217Z,56.50
2018-02-19T00:14:45.466Z,56.50
2018-02-19T00:16:48.686Z,56.60
2018-02-19T00:18:51.948Z,56.70
2018-02-19T00:20:55.186Z,56.60
2018-02-19T00:22:58.417Z,56.70
2018-02-19T00:25:01.648Z,56.80
2018-02-19T00:27:05.627Z,57.00
2018-02-19T00:29:08.873Z,56.90
2018-02-19T00:31:12.958Z,57.00
2018-02-19T00:33:16.188Z,57.00
2018-02-19T00:35:19.427Z,57.10
2018-02-19T00:37:22.657Z,57.10
2018-02-19T00:39:25.906Z,57.10
2018-02-19T00:41:29.211Z,57.20
2018-02-19T00:43:32.457Z,57.20
2018-02-19T00:45:35.697Z,57.30
2018-02-19T00:47:38.976Z,57.50
2018-02-19T00:49:43.073Z,57.70
2018-02-19T00:51:46.276Z,57.70
2018-02-19T00:53:49.528Z,57.70
2018-02-19T00:55:52.729Z,57.60
2018-02-19T00:57:55.973Z,57.80
2018-02-19T01:00:00.083Z,57.90
2018-02-19T01:02:03.291Z,57.70
2018-02-19T01:04:07.317Z,57.90
2018-02-19T01:06:11.412Z,58.00
2018-02-19T01:08:16.087Z,58.00
2018-02-19T01:10:19.321Z,58.00
2018-02-19T01:12:22.566Z,57.80
2018-02-19T01:14:25.867Z,57.80
2018-02-19T01:16:29.320Z,57.80
2018-02-19T01:18:32.560Z,57.80
2018-02-19T01:20:36.636Z,57.90
2018-02-19T01:22:39.869Z,57.80
2018-02-19T01:24:43.209Z,57.90
2018-02-19T01:26:47.208Z,58.10
2018-02-19T01:28:51.222Z,58.10
2018-02-19T01:30:54.463Z,58.10
2018-02-19T01:32:58.456Z,58.10
2018-02-19T01:35:01.681Z,58.20
2018-02-19T01:37:04.928Z,58.20
2018-02-19T01:39:08.922Z,58.10
2018-02-19T01:41:12.165Z,58.00
2018-02-19T01:43:16.469Z,58.10
2018-02-19T01:45:19.672Z,58.00
2018-02-19T01:47:22.981Z,58.00
2018-02-19T01:49:26.217Z,58.10
2018-02-19T01:51:30.182Z,58.30
2018-02-19T01:53:33.439Z,58.20
2018-02-19T01:55:36.669Z,58.20
2018-02-19T01:57:40.680Z,58.30
2018-02-19T01:59:43.953Z,58.20
2018-02-19T02:01:47.201Z,58.30
2018-02-19T02:03:50.404Z,58.30
2018-02-19T02:05:53.606Z,58.50
2018-02-19T02:07:56.869Z,58.50
2018-02-19T02:10:00.071Z,58.60
2018-02-19T02:12:03.283Z,59.00
2018-02-19T02:14:06.513Z,58.40
2018-02-19T02:16:09.899Z,58.20
2018-02-19T02:18:13.131Z,58.20
2018-02-19T02:20:16.460Z,58.10
2018-02-19T02:22:19.747Z,58.20
2018-02-19T02:24:22.987Z,58.10
2018-02-19T02:26:26.231Z,58.10
2018-02-19T02:28:30.251Z,58.10
2018-02-19T02:30:33.459Z,58.00
2018-02-19T02:32:37.056Z,58.00
2018-02-19T02:34:40.298Z,57.90
2018-02-19T02:36:43.530Z,58.00
2018-02-19T02:38:46.756Z,58.00
2018-02-19T02:40:50.778Z,58.00
2018-02-19T02:42:54.788Z,58.00
2018-02-19T02:44:58.014Z,58.00
2018-02-19T02:47:01.382Z,58.10
2018-02-19T02:49:04.602Z,58.10
2018-02-19T02:51:09.369Z,58.30
2018-02-19T02:53:12.626Z,58.20
2018-02-19T02:55:17.497Z,58.30
2018-02-19T02:57:23.165Z,58.40
2018-02-19T02:59:27.868Z,58.40
2018-02-19T03:01:31.930Z,58.40
2018-02-19T03:03:36.369Z,58.40
2018-02-19T03:05:40.889Z,58.40
2018-02-19T03:07:44.369Z,58.40
2018-02-19T03:09:47.624Z,58.50
2018-02-19T03:11:50.915Z,58.60
2018-02-19T03:13:54.169Z,58.60
2018-02-19T03:15:58.173Z,58.80
2018-02-19T03:18:01.415Z,58.80
2018-02-19T03:20:04.711Z,58.80
2018-02-19T03:22:08.724Z,58.90
2018-02-19T03:24:11.933Z,58.80
2018-02-19T03:26:15.268Z,58.90
2018-02-19T03:28:19.283Z,58.90
2018-02-19T03:30:22.533Z,59.40
2018-02-19T03:32:25.802Z,58.90
2018-02-19T03:34:29.923Z,59.10
2018-02-19T03:36:33.143Z,59.00
2018-02-19T03:38:36.402Z,59.00
2018-02-19T03:40:39.622Z,59.20
2018-02-19T03:42:42.870Z,59.10
2018-02-19T03:44:46.083Z,59.20
2018-02-19T03:46:49.331Z,59.20
2018-02-19T03:48:52.547Z,59.20
2018-02-19T03:50:55.760Z,59.30
2018-02-19T03:52:59.049Z,59.40
2018-02-19T03:55:02.349Z,59.50
2018-02-19T03:57:05.625Z,59.50
2018-02-19T03:59:08.878Z,59.50
2018-02-19T04:01:12.192Z,59.60
2018-02-19T04:03:15.425Z,59.70
2018-02-19T04:05:18.900Z,59.80
2018-02-19T04:07:22.937Z,59.90
2018-02-19T04:09:27.058Z,59.90
2018-02-19T04:11:31.053Z,60.00
2018-02-19T04:13:34.352Z,59.90
2018-02-19T04:15:37.589Z,59.90
2018-02-19T04:17:41.647Z,60.00
2018-02-19T04:19:44.948Z,59.90
2018-02-19T04:21:48.187Z,59.90
2018-02-19T04:23:51.516Z,59.90
2018-02-19T04:25:54.780Z,59.80
2018-02-19T04:27:58.043Z,60.00
2018-02-19T04:30:01.336Z,60.00
2018-02-19T04:32:04.628Z,60.00
2018-02-19T04:34:07.883Z,60.80
2018-02-19T04:36:11.163Z,60.00
2018-02-19T04:38:14.482Z,59.80
2018-02-19T04:40:17.892Z,60.00
2018-02-19T04:42:21.162Z,60.00
2018-02-19T04:44:28.782Z,60.20
2018-02-19T04:46:34.561Z,59.90
2018-02-19T04:48:37.786Z,59.90
2018-02-19T04:50:41.139Z,60.00
2018-02-19T04:52:44.353Z,60.10
2018-02-19T04:54:48.362Z,61.00
2018-02-19T04:56:51.644Z,60.00
2018-02-19T04:58:54.895Z,60.10
2018-02-19T05:00:58.169Z,60.00
2018-02-19T05:03:02.428Z,60.00
2018-02-19T05:05:06.323Z,60.10
2018-02-19T05:07:11.680Z,60.00
2018-02-19T05:09:15.569Z,60.10
2018-02-19T05:11:21.151Z,60.20
2018-02-19T05:13:25.627Z,60.10
2018-02-19T05:15:29.058Z,60.10
2018-02-19T05:17:32.728Z,60.10
2018-02-19T05:19:35.953Z,60.00
2018-02-19T05:21:39.217Z,60.10
2018-02-19T05:23:42.685Z,60.00
2018-02-19T05:25:46.192Z,60.90
2018-02-19T05:27:50.035Z,60.10
2018-02-19T05:29:55.286Z,60.10
2018-02-19T05:32:01.018Z,60.90
2018-02-19T05:34:05.145Z,60.10
2018-02-19T05:36:09.668Z,60.10
2018-02-19T05:38:13.579Z,60.00
2018-02-19T05:40:17.968Z,60.10
2018-02-19T05:42:22.592Z,60.20
2018-02-19T05:44:26.212Z,60.20
2018-02-19T05:46:31.216Z,60.20
2018-02-19T05:48:34.568Z,60.20
2018-02-19T05:50:37.844Z,60.20
2018-02-19T05:52:42.611Z,60.10
2018-02-19T05:54:46.551Z,60.10
2018-02-19T05:56:49.863Z,60.20
2018-02-19T05:58:53.836Z,60.30
2018-02-19T06:00:57.547Z,60.20
2018-02-19T06:03:00.812Z,60.20
2018-02-19T06:05:05.389Z,60.30
2018-02-19T06:07:08.669Z,60.20
2018-02-19T06:09:13.087Z,60.30
2018-02-19T06:11:17.781Z,60.10
2018-02-19T06:13:21.794Z,60.20
2018-02-19T06:15:25.140Z,60.10
2018-02-19T06:17:28.405Z,60.00
2018-02-19T06:19:32.096Z,60.10
2018-02-19T06:21:35.454Z,59.70
2018-02-19T06:23:38.783Z,60.00
2018-02-19T06:25:42.084Z,60.20
2018-02-19T06:27:49.181Z,60.20
2018-02-19T06:29:52.519Z,60.30
2018-02-19T06:31:57.421Z,59.90
2018-02-19T06:34:02.235Z,60.20
2018-02-19T06:36:06.465Z,60.20
2018-02-19T06:38:12.979Z,60.50
2018-02-19T06:40:17.678Z,60.40
2018-02-19T06:42:21.106Z,60.50
2018-02-19T06:44:24.335Z,60.30
2018-02-19T06:46:27.608Z,60.30
2018-02-19T06:48:30.862Z,60.30
2018-02-19T06:50:34.998Z,60.40
2018-02-19T06:52:39.680Z,60.50
2018-02-19T06:54:44.243Z,60.60
2018-02-19T06:56:51.630Z,60.70
2018-02-19T06:58:57.770Z,60.70
2018-02-19T07:01:02.948Z,60.60
2018-02-19T07:03:06.466Z,60.60
2018-02-19T07:05:09.793Z,60.60
2018-02-19T07:07:13.048Z,60.70
2018-02-19T07:09:17.104Z,61.00
2018-02-19T07:11:21.719Z,60.90
2018-02-19T07:13:26.385Z,60.80
2018-02-19T07:15:29.853Z,60.60
2018-02-19T07:17:33.732Z,60.60
2018-02-19T07:19:39.433Z,61.40
2018-02-19T07:21:44.073Z,60.90
2018-02-19T07:23:49.004Z,61.20
2018-02-19T07:25:52.436Z,61.10
2018-02-19T07:27:55.646Z,60.70
2018-02-19T07:29:59.934Z,61.00
2018-02-19T07:32:04.136Z,61.00
2018-02-19T07:34:08.030Z,61.20
2018-02-19T07:36:11.598Z,61.10
2018-02-19T07:38:15.693Z,61.20
2018-02-19T07:40:20.886Z,61.70
2018-02-19T07:42:24.946Z,61.80
2018-02-19T07:44:29.434Z,61.70
2018-02-19T07:46:32.844Z,61.70
2018-02-19T07:48:36.846Z,61.70
2018-02-19T07:50:40.163Z,61.90
2018-02-19T07:52:44.218Z,61.90
2018-02-19T07:54:47.803Z,61.90
2018-02-19T07:56:53.262Z,62.40
2018-02-19T07:58:57.510Z,62.10
2018-02-19T08:01:01.547Z,62.30
2018-02-19T08:03:04.962Z,62.20
2018-02-19T08:05:08.948Z,62.30
2018-02-19T08:07:12.207Z,62.10
2018-02-19T08:09:16.314Z,62.10
2018-02-19T08:11:21.158Z,62.10
2018-02-19T08:13:25.196Z,62.40
2018-02-19T08:15:29.269Z,62.50
2018-02-19T08:17:32.614Z,62.20
2018-02-19T08:19:35.889Z,62.30
2018-02-19T08:21:39.266Z,62.30
2018-02-19T08:23:43.362Z,62.60
2018-02-19T08:25:46.647Z,62.30
2018-02-19T08:27:51.819Z,62.30
2018-02-19T08:29:56.314Z,62.70
2018-02-19T08:31:59.624Z,62.60
2018-02-19T08:34:03.889Z,62.60
2018-02-19T08:36:07.217Z,62.70
2018-02-19T08:38:10.509Z,62.70
2018-02-19T08:40:14.910Z,62.80
2018-02-19T08:42:18.376Z,62.80
2018-02-19T08:44:22.776Z,62.50
2018-02-19T08:46:26.108Z,62.90
2018-02-19T08:48:29.351Z,62.60
2018-02-19T08:50:32.562Z,62.50
2018-02-19T08:52:35.838Z,62.70
2018-02-19T08:54:56.868Z,62.70
2018-02-19T08:57:18.292Z,62.30
2018-02-19T09:05:17.270Z,61.10
2018-02-19T09:07:39.614Z,60.70
2018-02-19T09:10:00.429Z,60.90
2018-02-19T09:12:21.269Z,60.20
2018-02-19T09:14:42.195Z,60.50
2018-02-19T09:43:46.777Z,57.80
2018-02-19T10:50:34.102Z,54.30
2018-02-19T10:52:37.265Z,53.90
2018-02-19T10:54:51.915Z,53.30
2018-02-19T10:56:55.126Z,52.70
2018-02-19T10:58:59.057Z,52.20
2018-02-19T11:01:02.973Z,51.90
2018-02-19T11:03:06.740Z,51.70
2018-02-19T11:05:11.108Z,51.80
2018-02-19T11:07:14.427Z,51.60
2018-02-19T11:09:17.594Z,51.40
2018-02-19T11:11:20.902Z,51.20
2018-02-19T11:13:24.109Z,50.80
2018-02-19T11:23:12.809Z,50.10
2018-02-19T11:25:16.779Z,49.50
2018-02-19T11:27:20.280Z,49.30
2018-02-19T11:29:26.717Z,48.90
2018-02-19T11:31:30.709Z,48.60
2018-02-19T11:33:35.293Z,48.50
2018-02-19T11:35:41.056Z,48.40
2018-02-19T11:37:44.270Z,48.30
2018-02-19T11:39:49.817Z,48.30
2018-02-19T11:41:54.925Z,48.30
2018-02-19T11:43:58.141Z,48.10
2018-02-19T11:46:01.350Z,47.70
2018-02-19T11:48:04.951Z,47.70
2018-02-19T11:50:08.129Z,47.90
2018-02-19T11:52:12.868Z,48.00
2018-02-19T11:54:16.344Z,48.10
2018-02-19T11:56:19.538Z,47.60
2018-02-19T11:58:22.810Z,47.40
2018-02-19T12:00:26.825Z,47.50
2018-02-19T12:02:29.994Z,47.30
2018-02-19T12:04:33.192Z,47.50
2018-02-19T12:06:36.391Z,47.50
2018-02-19T12:08:39.574Z,47.40
2018-02-19T12:10:43.485Z,47.60
2018-02-19T12:12:46.690Z,47.50
2018-02-19T12:20:27.814Z,47.20
2018-02-19T12:22:31.019Z,47.20
2018-02-19T12:24:35.112Z,46.90
2018-02-19T12:26:39.202Z,46.60
2018-02-19T12:28:43.337Z,46.70
2018-02-19T12:30:48.198Z,46.80
2018-02-19T12:32:52.104Z,46.80
2018-02-19T12:34:55.449Z,46.60
2018-02-19T12:36:58.884Z,46.50
2018-02-19T12:39:02.114Z,46.50
2018-02-19T12:41:05.338Z,46.50
2018-02-19T12:43:09.340Z,46.50
2018-02-19T12:45:14.650Z,46.40
2018-02-19T12:47:17.807Z,46.50
2018-02-19T12:49:21.001Z,46.30
2018-02-19T12:51:24.198Z,46.10
2018-02-19T12:53:27.354Z,46.20
2018-02-19T12:55:30.570Z,46.10
2018-02-19T12:57:34.536Z,45.80
2018-02-19T12:59:37.713Z,45.60
2018-02-19T13:01:41.658Z,45.50
2018-02-19T13:03:44.861Z,46.00
2018-02-19T13:05:48.051Z,45.20
2018-02-19T13:07:52.036Z,45.30
2018-02-19T13:09:55.234Z,45.20
2018-02-19T13:11:58.422Z,45.20
2018-02-19T13:14:01.586Z,45.30
2018-02-19T13:16:04.855Z,45.50
2018-02-19T13:18:08.075Z,45.30
2018-02-19T13:20:11.264Z,45.00
2018-02-19T13:22:14.469Z,45.00
2018-02-19T13:24:17.873Z,45.10
2018-02-19T13:26:21.075Z,45.00
2018-02-19T13:28:25.052Z,44.90
2018-02-19T13:30:28.246Z,44.80
2018-02-19T13:32:31.461Z,44.80
2018-02-19T13:34:34.618Z,44.90
2018-02-19T13:36:38.565Z,45.00
2018-02-19T13:38:41.714Z,44.90
2018-02-19T13:40:44.903Z,44.70
2018-02-19T13:42:48.057Z,44.60
2018-02-19T13:44:51.294Z,44.60
2018-02-19T13:46:54.458Z,44.60
2018-02-19T13:48:57.650Z,44.60
2018-02-19T13:51:01.526Z,44.50
2018-02-19T13:53:05.562Z,44.70
2018-02-19T13:55:09.521Z,44.80
2018-02-19T13:57:12.851Z,44.50
2018-02-19T13:59:16.034Z,44.70
2018-02-19T14:01:19.262Z,44.50
2018-02-19T14:03:22.678Z,44.50
2018-02-19T14:05:25.997Z,44.40
2018-02-19T14:07:29.219Z,44.60
2018-02-19T14:09:32.448Z,44.50
2018-02-19T14:11:35.671Z,44.60
2018-02-19T14:13:39.624Z,44.40
2018-02-19T14:15:42.832Z,44.30
2018-02-19T14:17:46.263Z,44.50
2018-02-19T14:19:49.456Z,44.40
2018-02-19T14:21:52.619Z,44.30
2018-02-19T14:23:56.032Z,44.20
2018-02-19T14:25:59.313Z,44.10
2018-02-19T14:28:02.528Z,44.10
2018-02-19T14:30:05.949Z,44.10
2018-02-19T14:32:09.166Z,44.10
2018-02-19T14:34:12.345Z,44.20
2018-02-19T14:36:16.337Z,44.10
2018-02-19T14:38:20.302Z,44.10
2018-02-19T14:40:23.597Z,44.10
2018-02-19T14:42:26.861Z,44.10
2018-02-19T14:44:30.030Z,44.20
2018-02-19T14:46:33.189Z,44.30
2018-02-19T14:48:37.155Z,44.30
2018-02-19T14:50:40.378Z,44.20
2018-02-19T14:52:43.577Z,44.40
2018-02-19T14:54:46.890Z,44.40
2018-02-19T14:56:50.130Z,44.10
2018-02-19T14:58:53.301Z,44.10
2018-02-19T15:00:56.501Z,44.00
2018-02-19T15:03:01.138Z,44.40
2018-02-19T15:05:05.098Z,44.30
2018-02-19T15:07:08.299Z,44.30
2018-02-19T15:09:11.519Z,44.40
2018-02-19T15:11:14.684Z,44.50
2018-02-19T15:13:18.680Z,45.70
2018-02-19T15:15:23.657Z,45.30
2018-02-19T15:17:26.986Z,45.20
2018-02-19T15:19:30.247Z,45.10
2018-02-19T15:21:33.420Z,45.10
2018-02-19T15:23:36.665Z,45.10
2018-02-19T15:25:39.840Z,45.00
2018-02-19T15:27:43.299Z,44.90
2018-02-19T15:29:47.294Z,45.30
2018-02-19T15:31:50.532Z,45.10
2018-02-19T15:33:54.492Z,45.50
2018-02-19T15:35:57.730Z,45.40
2018-02-19T15:38:00.929Z,45.40
2018-02-19T15:40:04.109Z,45.40
2018-02-19T15:42:07.326Z,45.20
2018-02-19T15:44:11.296Z,45.50
2018-02-19T15:46:14.553Z,45.50
2018-02-19T15:48:18.498Z,45.30
2018-02-19T15:50:21.716Z,45.30
2018-02-19T15:54:30.578Z,45.90
2018-02-19T15:56:33.748Z,46.20
2018-02-19T15:58:36.921Z,46.40
2018-02-19T16:00:40.147Z,46.50
2018-02-19T16:02:43.795Z,46.40
2018-02-19T16:04:46.960Z,46.50
2018-02-19T16:06:50.136Z,47.60
2018-02-19T16:08:54.149Z,47.30
2018-02-19T16:10:57.423Z,47.20
2018-02-19T16:13:00.617Z,47.10
2018-02-19T16:15:04.029Z,47.00
2018-02-19T16:17:07.218Z,47.10
2018-02-19T16:19:10.467Z,47.20
2018-02-19T16:21:13.762Z,47.20
2018-02-19T16:23:16.938Z,47.50
2018-02-19T16:25:20.118Z,47.70
2018-02-19T16:27:23.310Z,48.00
2018-02-19T16:29:26.586Z,48.10
2018-02-19T16:31:29.780Z,47.90
2018-02-19T16:33:32.962Z,48.00
2018-02-19T16:35:36.154Z,48.30
2018-02-19T16:37:39.697Z,48.40
2018-02-19T16:39:43.706Z,48.60
2018-02-19T16:41:46.999Z,48.60
2018-02-19T16:43:50.335Z,48.80
2018-02-19T16:45:53.538Z,48.90
2018-02-19T16:47:56.928Z,48.90
2018-02-19T16:50:00.315Z,49.00
2018-02-19T16:52:05.085Z,49.10
2018-02-19T16:54:08.336Z,49.10
2018-02-19T16:56:11.626Z,49.00
2018-02-19T16:58:15.690Z,49.30
2018-02-19T17:00:19.063Z,49.10
2018-02-19T17:02:24.129Z,49.20
2018-02-19T17:04:27.631Z,49.20
2018-02-19T17:06:35.372Z,49.40
2018-02-19T17:08:38.562Z,49.50
2018-02-19T17:10:42.396Z,49.40
2018-02-19T17:12:47.391Z,49.80
2018-02-19T17:14:50.556Z,49.80
2018-02-19T17:16:54.531Z,50.00
2018-02-19T17:18:57.708Z,49.90
2018-02-19T17:21:01.135Z,49.90
2018-02-19T17:23:04.514Z,50.00
2018-02-19T17:25:07.687Z,50.10
2018-02-19T17:27:10.945Z,50.20
2018-02-19T17:29:28.420Z,50.60
2018-02-19T17:32:07.571Z,50.50
2018-02-19T17:34:10.746Z,50.50
2018-02-19T17:36:19.177Z,50.50
2018-02-19T17:38:23.728Z,50.40
2018-02-19T17:40:29.083Z,51.00
2018-02-19T17:42:58.451Z,50.80
2018-02-19T17:45:01.721Z,51.10
2018-02-19T17:47:08.490Z,51.30
2018-02-19T17:49:12.681Z,51.10
2018-02-19T17:51:16.670Z,51.60
2018-02-19T17:53:21.808Z,51.50
2018-02-19T17:55:29.310Z,51.70
2018-02-19T17:57:36.022Z,51.80
2018-02-19T17:59:53.370Z,51.80
2018-02-19T18:02:00.117Z,51.60
2018-02-19T18:04:04.286Z,51.60
2018-02-19T18:06:08.861Z,51.50
2018-02-19T19:33:04.143Z,52.60
2018-02-19T19:35:07.342Z,52.60
2018-02-19T19:37:10.520Z,52.80
2018-02-19T19:39:13.838Z,52.90
2018-02-19T19:41:17.000Z,53.30
2018-02-19T19:43:20.185Z,53.40
2018-02-19T19:45:26.967Z,53.40
2018-02-19T19:47:31.527Z,53.50
2018-02-19T19:49:35.600Z,53.30
2018-02-19T19:51:39.400Z,53.50
2018-02-19T19:53:42.725Z,53.60
2018-02-19T19:55:46.952Z,53.60
2018-02-19T19:57:51.069Z,53.90
2018-02-19T19:59:54.254Z,53.90
2018-02-19T20:01:57.412Z,53.90
2018-02-19T20:04:00.586Z,53.90
2018-02-19T20:06:03.823Z,54.00
2018-02-19T20:08:07.761Z,54.00
2018-02-19T20:10:10.962Z,53.90
2018-02-19T20:12:14.158Z,53.90
2018-02-19T20:14:18.159Z,54.00
2018-02-19T20:16:21.353Z,54.00
2018-02-19T20:18:24.576Z,54.10
2018-02-19T20:20:27.803Z,54.20
2018-02-19T20:22:31.900Z,55.00
2018-02-19T20:24:35.621Z,54.20
2018-02-19T20:26:38.925Z,54.10
2018-02-19T20:28:42.097Z,54.20
2018-02-19T20:30:45.606Z,54.30
2018-02-19T20:32:49.086Z,54.20
2018-02-19T20:34:52.312Z,54.20
2018-02-19T20:36:56.302Z,54.40
2018-02-19T20:38:59.624Z,54.30
2018-02-19T20:41:02.855Z,54.20
2018-02-19T20:43:07.056Z,54.40
2018-02-19T20:45:10.286Z,54.20
2018-02-19T20:47:13.474Z,54.20
2018-02-19T20:49:16.677Z,54.40
2018-02-19T20:51:19.871Z,54.40
2018-02-19T20:53:23.031Z,54.50
2018-02-19T20:55:26.266Z,54.50
2018-02-19T20:57:29.619Z,54.60
2018-02-19T20:59:32.853Z,54.60
2018-02-19T21:01:36.126Z,54.80
2018-02-19T21:03:39.424Z,54.90
2018-02-19T21:05:42.601Z,54.90
2018-02-19T21:07:46.617Z,55.00
2018-02-19T21:09:49.898Z,55.00
2018-02-19T21:11:54.227Z,55.10
2018-02-19T21:13:57.488Z,55.20
2018-02-19T21:16:00.780Z,55.30
2018-02-19T21:18:03.961Z,55.20
2018-02-19T21:20:08.452Z,55.10
2018-02-19T21:22:12.385Z,55.50
2018-02-19T21:24:16.339Z,55.50
2018-02-19T21:26:19.513Z,55.40
2018-02-19T21:28:23.487Z,55.50
2018-02-19T21:30:27.245Z,55.30
2018-02-19T21:32:35.019Z,55.30
2018-02-19T21:34:39.118Z,55.40
2018-02-19T21:36:42.537Z,55.40
2018-02-19T21:38:45.713Z,55.40
2018-02-19T21:40:49.381Z,55.30
2018-02-19T21:42:53.337Z,55.40
2018-02-19T21:44:56.792Z,55.40
2018-02-19T21:47:00.163Z,55.40
2018-02-19T21:49:06.709Z,55.40
2018-02-19T21:53:48.058Z,55.40
2018-02-19T21:56:09.405Z,56.00
2018-02-19T21:58:12.581Z,55.40
2018-02-19T22:00:15.850Z,55.20
2018-02-19T22:02:21.495Z,55.30
2018-02-19T22:04:24.672Z,55.20
2018-02-19T22:06:27.878Z,55.30
2018-02-19T22:08:31.056Z,55.20
2018-02-19T22:10:34.265Z,55.30
2018-02-19T22:12:37.698Z,55.20
2018-02-19T22:14:40.853Z,55.10
2018-02-19T22:16:44.843Z,55.20
2018-02-19T22:18:48.029Z,55.20
2018-02-19T22:20:51.224Z,55.20
2018-02-19T22:22:54.408Z,55.20
2018-02-19T22:24:58.032Z,55.30
2018-02-19T22:27:01.213Z,55.40
2018-02-19T22:29:04.390Z,55.40
2018-02-19T22:31:07.595Z,55.40
2018-02-19T22:33:11.387Z,55.50
2018-02-19T22:35:15.366Z,55.40
2018-02-19T22:37:18.549Z,55.30
2018-02-19T22:39:21.769Z,55.40
2018-02-19T22:41:24.959Z,55.40
2018-02-19T22:43:28.156Z,55.40
2018-02-19T22:45:32.172Z,55.40
2018-02-19T22:47:35.357Z,55.30
2018-02-19T22:49:38.543Z,55.30
2018-02-19T22:51:41.828Z,55.30
2018-02-19T22:53:45.043Z,55.30
2018-02-19T22:55:48.201Z,55.30
2018-02-19T22:57:51.405Z,55.30
2018-02-19T22:59:54.583Z,55.20
2018-02-19T23:01:57.750Z,55.20
2018-02-19T23:04:01.723Z,55.20
2018-02-19T23:06:04.890Z,55.20
2018-02-19T23:08:08.830Z,55.50
2018-02-19T23:10:12.039Z,55.40
2018-02-19T23:12:15.248Z,55.30
2018-02-19T23:14:18.472Z,55.40
2018-02-19T23:16:21.665Z,55.40
2018-02-19T23:18:25.580Z,55.60
2018-02-19T23:20:29.502Z,55.50
2018-02-19T23:22:33.470Z,55.60
2018-02-19T23:24:36.651Z,55.50
2018-02-19T23:26:39.811Z,55.50
2018-02-19T23:28:43.241Z,55.50
2018-02-19T23:30:46.437Z,55.60
2018-02-19T23:32:51.165Z,55.60
2018-02-19T23:34:54.342Z,55.50
2018-02-19T23:36:57.518Z,55.60
2018-02-19T23:39:00.709Z,55.60
2018-02-19T23:41:03.897Z,55.60
2018-02-19T23:43:07.093Z,55.60
2018-02-19T23:45:10.265Z,56.30
2018-02-19T23:47:14.221Z,55.70
2018-02-19T23:49:17.386Z,55.60
2018-02-19T23:51:20.584Z,55.50
2018-02-19T23:53:23.747Z,56.20
2018-02-19T23:55:26.948Z,55.60
2018-02-19T23:57:30.101Z,55.60
2018-02-19T23:59:33.265Z,55.60
